createdAt,value
2023-01-08T00:01:20.701Z,99883.72
2023-01-08T00:03:50.913Z,99882.72
2023-01-08T00:06:22.174Z,99882.97
2023-01-08T00:08:52.070Z,99888.50
2023-01-08T00:11:21.564Z,99882.50
2023-01-08T00:13:51.091Z,99881.94
2023-01-08T00:16:21.302Z,99877.53
2023-01-08T00:18:50.754Z,99871.38
2023-01-08T00:21:20.848Z,99864.06
2023-01-08T00:23:49.977Z,99863.78
2023-01-08T00:26:19.520Z,99873.25
2023-01-08T00:28:48.940Z,99871.91
2023-01-08T00:31:18.471Z,99870.75
2023-01-08T00:33:48.002Z,99870.94
2023-01-08T00:36:19.776Z,99870.00
2023-01-08T00:38:49.296Z,99869.38
2023-01-08T00:41:19.438Z,99865.53
2023-01-08T00:43:48.966Z,99862.06
2023-01-08T00:46:18.604Z,99873.38
2023-01-08T00:48:48.170Z,99871.28
2023-01-08T00:51:17.636Z,99871.16
2023-01-08T00:53:47.148Z,99879.59
2023-01-08T00:56:16.677Z,99879.69
2023-01-08T00:58:46.183Z,99881.00
2023-01-08T01:01:16.619Z,99882.41
2023-01-08T01:03:46.299Z,99886.94
2023-01-08T01:06:16.072Z,99888.28
2023-01-08T01:08:45.726Z,99887.44
2023-01-08T01:11:23.761Z,99880.06
2023-01-08T01:13:56.273Z,99880.25
2023-01-08T01:16:26.892Z,99887.25
2023-01-08T01:18:57.777Z,99894.19
2023-01-08T01:21:31.998Z,99885.84
2023-01-08T01:24:06.086Z,99883.03
2023-01-08T01:26:36.058Z,99892.34
2023-01-08T01:29:05.987Z,99892.72
2023-01-08T01:31:35.606Z,99887.81
2023-01-08T01:34:05.129Z,99885.94
2023-01-08T01:36:34.629Z,99880.44
2023-01-08T01:39:05.195Z,99874.72
2023-01-08T01:41:40.511Z,99872.50
2023-01-08T01:44:45.485Z,99867.41
2023-01-08T01:47:37.105Z,99880.06
2023-01-08T01:50:16.170Z,99870.34
2023-01-08T01:53:02.603Z,99868.22
2023-01-08T01:55:34.038Z,99869.25
2023-01-08T01:58:14.020Z,99864.50
2023-01-08T02:00:45.187Z,99850.31
2023-01-08T02:03:16.208Z,99843.13
2023-01-08T02:06:23.951Z,99836.56
2023-01-08T02:09:59.755Z,99832.94
2023-01-08T02:13:05.003Z,99826.94
2023-01-08T02:15:43.041Z,99821.78
2023-01-08T02:18:51.014Z,99822.28
2023-01-08T02:21:29.436Z,99817.56
2023-01-08T02:24:20.074Z,99818.53
2023-01-08T02:26:49.550Z,99821.28
2023-01-08T02:29:25.215Z,99818.06
2023-01-08T02:31:55.201Z,99815.59
2023-01-08T02:34:24.738Z,99815.38
2023-01-08T02:36:57.302Z,99822.56
2023-01-08T02:40:02.813Z,99817.09
2023-01-08T02:43:12.807Z,99824.94
2023-01-08T02:45:55.190Z,99820.56
2023-01-08T02:48:53.127Z,99820.94
2023-01-08T02:51:35.546Z,99814.97
2023-01-08T02:54:17.211Z,99799.19
2023-01-08T02:56:58.454Z,99793.88
2023-01-08T02:59:30.592Z,99776.97
2023-01-08T03:02:02.767Z,99784.72
2023-01-08T03:04:47.128Z,99782.09
2023-01-08T03:07:16.699Z,99784.47
2023-01-08T03:09:46.489Z,99777.16
2023-01-08T03:12:37.112Z,99785.97
2023-01-08T03:15:17.243Z,99776.22
2023-01-08T03:17:52.595Z,99780.25
2023-01-08T03:20:25.914Z,99776.16
2023-01-08T03:23:03.488Z,99774.38
2023-01-08T03:25:32.354Z,99782.75
2023-01-08T03:28:10.304Z,99782.53
2023-01-08T03:30:41.980Z,99792.88
2023-01-08T03:33:13.577Z,99781.31
2023-01-08T03:35:49.231Z,99783.19
2023-01-08T03:38:35.685Z,99783.53
2023-01-08T03:41:14.113Z,99781.53
2023-01-08T03:43:43.627Z,99774.31
2023-01-08T03:46:33.150Z,99769.72
2023-01-08T03:49:07.829Z,99769.09
2023-01-08T03:51:47.710Z,99774.06
2023-01-08T03:54:24.890Z,99774.06
2023-01-08T03:56:54.463Z,99767.38
2023-01-08T03:59:24.641Z,99772.53
2023-01-08T04:01:54.489Z,99771.44
2023-01-08T04:04:25.136Z,99766.13
2023-01-08T04:06:54.647Z,99774.53
2023-01-08T04:09:24.138Z,99764.88
2023-01-08T04:11:53.175Z,99771.56
2023-01-08T04:14:22.648Z,99763.69
2023-01-08T04:16:52.175Z,99760.22
2023-01-08T04:19:21.776Z,99756.69
2023-01-08T04:21:52.778Z,99754.72
2023-01-08T04:24:22.414Z,99755.84
2023-01-08T04:26:51.907Z,99750.94
2023-01-08T04:29:21.397Z,99760.97
2023-01-08T04:31:50.952Z,99764.75
2023-01-08T04:34:20.577Z,99760.03
2023-01-08T04:36:50.142Z,99763.16
2023-01-08T04:39:19.668Z,99762.34
2023-01-08T04:41:49.144Z,99764.16
2023-01-08T04:44:18.587Z,99758.66
2023-01-08T04:46:47.278Z,99762.91
2023-01-08T04:49:16.800Z,99764.03
2023-01-08T04:51:44.778Z,99759.28
2023-01-08T04:54:14.415Z,99767.84
2023-01-08T04:56:43.904Z,99761.53
2023-01-08T04:59:13.426Z,99754.69
2023-01-08T05:01:43.008Z,99756.59
2023-01-08T05:04:12.904Z,99755.97
2023-01-08T05:06:42.353Z,99764.16
2023-01-08T05:09:12.079Z,99758.81
2023-01-08T05:11:43.329Z,99760.06
2023-01-08T05:14:12.876Z,99750.44
2023-01-08T05:16:42.438Z,99745.19
2023-01-08T05:19:11.906Z,99748.16
2023-01-08T05:21:41.488Z,99743.69
2023-01-08T05:24:11.032Z,99741.59
2023-01-08T05:26:40.609Z,99741.03
2023-01-08T05:29:11.369Z,99753.34
2023-01-08T05:31:40.863Z,99754.34
2023-01-08T05:34:10.698Z,99745.25
2023-01-08T05:36:39.259Z,99744.38
2023-01-08T05:39:08.883Z,99737.06
2023-01-08T05:41:38.576Z,99739.97
2023-01-08T05:44:08.108Z,99739.06
2023-01-08T05:46:37.755Z,99734.50
2023-01-08T05:49:07.316Z,99747.38
2023-01-08T05:51:36.837Z,99740.47
2023-01-08T05:54:06.632Z,99732.81
2023-01-08T05:56:37.153Z,99735.72
2023-01-08T05:59:06.765Z,99735.38
2023-01-08T06:01:36.314Z,99727.03
2023-01-08T06:04:07.266Z,99727.47
2023-01-08T06:06:37.781Z,99723.13
2023-01-08T06:09:07.357Z,99713.59
2023-01-08T06:11:36.943Z,99722.88
2023-01-08T06:14:06.415Z,99746.69
2023-01-08T06:16:35.895Z,99726.69
2023-01-08T06:19:05.349Z,99733.50
2023-01-08T06:21:33.117Z,99726.81
2023-01-08T06:24:02.634Z,99722.19
2023-01-08T06:26:32.094Z,99718.22
2023-01-08T06:29:01.621Z,99721.94
2023-01-08T06:31:31.194Z,99713.84
2023-01-08T06:34:00.671Z,99704.28
2023-01-08T06:36:30.191Z,99706.91
2023-01-08T06:38:59.688Z,99707.06
2023-01-08T06:41:30.111Z,99716.69
2023-01-08T06:43:59.599Z,99713.94
2023-01-08T06:46:29.360Z,99719.53
2023-01-08T06:48:58.868Z,99715.81
2023-01-08T06:51:28.464Z,99710.84
2023-01-08T06:53:58.174Z,99715.69
2023-01-08T06:56:27.887Z,99717.88
2023-01-08T06:58:57.226Z,99711.91
2023-01-08T07:01:26.927Z,99710.97
2023-01-08T07:03:56.760Z,99711.41
2023-01-08T07:06:26.285Z,99714.19
2023-01-08T07:08:55.826Z,99712.81
2023-01-08T07:11:25.312Z,99719.41
2023-01-08T07:13:56.959Z,99731.16
2023-01-08T07:16:26.472Z,99725.69
2023-01-08T07:18:57.011Z,99724.25
2023-01-08T07:21:26.769Z,99732.16
2023-01-08T07:23:56.310Z,99733.25
2023-01-08T07:26:24.987Z,99732.53
2023-01-08T07:28:54.942Z,99737.50
2023-01-08T07:31:24.481Z,99734.66
2023-01-08T07:33:54.063Z,99725.22
2023-01-08T07:36:24.559Z,99733.69
2023-01-08T07:38:54.042Z,99733.13
2023-01-08T07:41:23.602Z,99736.94
2023-01-08T07:43:53.174Z,99730.16
2023-01-08T07:46:23.194Z,99726.94
2023-01-08T07:48:52.864Z,99727.06
2023-01-08T07:51:22.537Z,99716.63
2023-01-08T07:53:52.093Z,99733.97
2023-01-08T07:56:21.669Z,99733.28
2023-01-08T07:58:51.557Z,99714.66
2023-01-08T08:01:21.420Z,99714.88
2023-01-08T08:03:50.258Z,99708.34
2023-01-08T08:06:20.677Z,99707.63
2023-01-08T08:08:51.081Z,99707.09
2023-01-08T08:11:20.662Z,99716.28
2023-01-08T08:13:52.940Z,99716.00
2023-01-08T08:16:21.249Z,99720.75
2023-01-08T08:18:51.789Z,99712.50
2023-01-08T08:21:21.304Z,99711.91
2023-01-08T08:23:50.956Z,99715.22
2023-01-08T08:26:20.570Z,99700.59
2023-01-08T08:28:50.430Z,99695.00
2023-01-08T08:31:20.072Z,99692.44
2023-01-08T08:33:49.678Z,99692.56
2023-01-08T08:36:19.267Z,99692.78
2023-01-08T08:38:48.792Z,99689.69
2023-01-08T08:41:18.870Z,99687.22
2023-01-08T08:43:51.382Z,99689.22
2023-01-08T08:46:21.053Z,99680.28
2023-01-08T08:48:50.622Z,99684.69
2023-01-08T08:51:20.151Z,99681.91
2023-01-08T08:53:49.718Z,99676.06
2023-01-08T08:56:19.656Z,99679.53
2023-01-08T08:58:50.782Z,99679.69
2023-01-08T09:01:20.410Z,99679.06
2023-01-08T09:03:52.897Z,99677.38
2023-01-08T09:06:23.374Z,99672.50
2023-01-08T09:08:55.180Z,99666.66
2023-01-08T09:11:24.776Z,99669.84
2023-01-08T09:13:54.348Z,99673.47
2023-01-08T09:16:23.944Z,99667.06
2023-01-08T09:18:53.460Z,99660.53
2023-01-08T09:21:22.924Z,99666.09
2023-01-08T09:23:52.519Z,99662.28
2023-01-08T09:26:22.070Z,99666.78
2023-01-08T09:28:51.651Z,99664.69
2023-01-08T09:31:21.966Z,99662.72
2023-01-08T09:33:51.987Z,99665.06
2023-01-08T09:36:21.561Z,99652.91
2023-01-08T09:38:51.122Z,99657.97
2023-01-08T09:41:32.576Z,99651.97
2023-01-08T09:44:06.127Z,99650.31
2023-01-08T09:46:37.140Z,99646.06
2023-01-08T09:49:15.555Z,99638.34
2023-01-08T09:51:44.366Z,99636.81
2023-01-08T09:54:17.865Z,99635.28
2023-01-08T09:56:47.542Z,99625.22
2023-01-08T09:59:20.786Z,99625.66
2023-01-08T10:01:49.797Z,99615.66
2023-01-08T10:04:37.492Z,99612.69
2023-01-08T10:07:21.984Z,99609.97
2023-01-08T10:09:53.323Z,99599.16
2023-01-08T10:12:33.208Z,99599.09
2023-01-08T10:15:07.444Z,99597.88
2023-01-08T10:18:02.962Z,99596.94
2023-01-08T10:20:34.051Z,99590.66
2023-01-08T10:23:18.366Z,99587.47
2023-01-08T10:26:01.465Z,99577.00
2023-01-08T10:28:38.143Z,99579.38
2023-01-08T10:31:16.386Z,99575.34
2023-01-08T10:33:49.749Z,99572.03
2023-01-08T10:36:27.683Z,99569.13
2023-01-08T10:39:04.400Z,99559.16
2023-01-08T10:41:40.226Z,99557.44
2023-01-08T10:44:18.248Z,99558.63
2023-01-08T10:46:56.207Z,99547.38
2023-01-08T10:49:49.898Z,99541.00
2023-01-08T10:52:37.864Z,99538.31
2023-01-08T10:55:37.639Z,99526.97
2023-01-08T10:58:10.152Z,99527.16
2023-01-08T11:00:39.996Z,99524.50
2023-01-08T11:03:32.289Z,99520.16
2023-01-08T11:06:20.284Z,99513.13
2023-01-08T11:09:00.354Z,99512.28
2023-01-08T11:11:37.657Z,99510.41
2023-01-08T11:14:26.960Z,99509.22
2023-01-08T11:16:58.287Z,99499.53
2023-01-08T11:19:33.369Z,99499.53
2023-01-08T11:22:22.719Z,99483.41
2023-01-08T11:24:54.103Z,99476.13
2023-01-08T11:27:36.885Z,99477.56
2023-01-08T11:30:27.415Z,99463.97
2023-01-08T11:33:22.274Z,99458.50
2023-01-08T11:36:03.372Z,99456.19
2023-01-08T11:38:33.522Z,99452.06
2023-01-08T11:41:49.656Z,99447.03
2023-01-08T11:44:39.767Z,99448.16
2023-01-08T11:47:37.705Z,99434.69
2023-01-08T11:51:09.596Z,99437.81
2023-01-08T11:54:03.059Z,99434.28
2023-01-08T11:57:08.145Z,99431.41
2023-01-08T12:00:45.281Z,99423.72
2023-01-08T12:03:45.798Z,99412.88
2023-01-08T12:06:56.024Z,99406.00
2023-01-08T12:09:46.409Z,99406.19
2023-01-08T12:12:58.872Z,99402.44
2023-01-08T12:16:05.416Z,99394.03
2023-01-08T12:19:30.682Z,99385.50
2023-01-08T12:22:17.805Z,99393.34
2023-01-08T12:25:43.165Z,99392.75
2023-01-08T12:28:33.122Z,99384.72
2023-01-08T12:31:44.120Z,99383.50
2023-01-08T12:34:28.066Z,99378.50
2023-01-08T12:37:36.680Z,99386.41
2023-01-08T12:40:34.973Z,99380.25
2023-01-08T12:43:20.608Z,99384.88
2023-01-08T12:45:55.813Z,99373.19
2023-01-08T12:48:31.693Z,99381.59
2023-01-08T12:51:34.295Z,99382.19
2023-01-08T12:54:51.616Z,99371.22
2023-01-08T12:57:56.759Z,99364.50
2023-01-08T13:00:43.775Z,99371.88
2023-01-08T13:03:23.124Z,99369.19
2023-01-08T13:05:52.747Z,99374.00
2023-01-08T13:08:34.363Z,99369.66
2023-01-08T13:11:05.040Z,99364.00
2023-01-08T13:13:44.270Z,99370.16
2023-01-08T13:16:19.705Z,99370.00
2023-01-08T13:19:23.960Z,99366.16
2023-01-08T13:21:59.150Z,99371.06
2023-01-08T13:24:41.194Z,99365.22
2023-01-08T13:27:30.041Z,99364.75
2023-01-08T13:29:59.652Z,99362.56
2023-01-08T13:32:49.015Z,99352.97
2023-01-08T13:35:31.730Z,99354.72
2023-01-08T13:38:22.278Z,99354.31
2023-01-08T13:40:56.510Z,99363.69
2023-01-08T13:43:40.205Z,99356.16
2023-01-08T13:46:22.672Z,99348.19
2023-01-08T13:49:05.927Z,99339.19
2023-01-08T13:51:46.413Z,99338.63
2023-01-08T13:54:19.503Z,99341.19
2023-01-08T13:56:55.503Z,99335.66
2023-01-08T13:59:57.498Z,99338.25
2023-01-08T14:02:50.334Z,99339.13
2023-01-08T14:05:37.044Z,99332.78
2023-01-08T14:08:25.841Z,99329.03
2023-01-08T14:10:55.343Z,99333.28
2023-01-08T14:13:32.296Z,99336.25
2023-01-08T14:16:06.862Z,99331.16
2023-01-08T14:18:36.319Z,99337.50
2023-01-08T14:21:05.136Z,99330.09
2023-01-08T14:23:43.639Z,99327.41
2023-01-08T14:26:38.742Z,99335.94
2023-01-08T14:29:19.287Z,99331.16
2023-01-08T14:31:53.419Z,99323.31
2023-01-08T14:34:28.289Z,99334.59
2023-01-08T14:37:01.233Z,99336.16
2023-01-08T14:39:55.069Z,99324.66
2023-01-08T14:42:44.144Z,99325.44
2023-01-08T14:45:28.719Z,99325.44
2023-01-08T14:48:40.718Z,99329.44
2023-01-08T14:51:18.540Z,99331.94
2023-01-08T14:54:03.960Z,99328.75
2023-01-08T14:56:36.620Z,99321.97
2023-01-08T14:59:12.545Z,99322.75
2023-01-08T15:01:43.225Z,99316.72
2023-01-08T15:04:21.488Z,99313.41
2023-01-08T15:06:53.526Z,99312.44
2023-01-08T15:09:24.232Z,99313.19
2023-01-08T15:12:23.437Z,99313.69
2023-01-08T15:14:55.376Z,99310.22
2023-01-08T15:17:32.035Z,99303.63
2023-01-08T15:20:02.060Z,99306.00
2023-01-08T15:22:33.129Z,99299.44
2023-01-08T15:25:07.476Z,99294.44
2023-01-08T15:27:37.445Z,99303.63
2023-01-08T15:30:24.628Z,99308.31
2023-01-08T15:32:53.356Z,99296.19
2023-01-08T15:35:25.868Z,99294.81
2023-01-08T15:37:54.546Z,99295.97
2023-01-08T15:40:24.033Z,99295.28
2023-01-08T15:43:10.549Z,99292.16
2023-01-08T15:45:46.450Z,99299.72
2023-01-08T15:48:16.309Z,99292.53
2023-01-08T15:50:46.234Z,99295.59
2023-01-08T15:53:24.842Z,99302.09
2023-01-08T15:55:54.341Z,99287.00
2023-01-08T15:58:23.815Z,99285.81
2023-01-08T16:00:52.514Z,99281.44
2023-01-08T16:03:22.876Z,99286.41
2023-01-08T16:05:52.373Z,99275.69
2023-01-08T16:08:21.044Z,99286.19
2023-01-08T16:10:53.906Z,99285.72
2023-01-08T16:13:23.341Z,99280.66
2023-01-08T16:15:52.877Z,99275.09
2023-01-08T16:18:22.410Z,99271.16
2023-01-08T16:21:01.625Z,99271.66
2023-01-08T16:23:34.286Z,99265.81
2023-01-08T16:26:18.344Z,99264.38
2023-01-08T16:28:49.075Z,99271.94
2023-01-08T16:31:18.684Z,99265.81
2023-01-08T16:33:48.196Z,99256.63
2023-01-08T16:36:17.742Z,99269.00
2023-01-08T16:38:49.207Z,99262.84
2023-01-08T16:41:18.693Z,99263.81
2023-01-08T16:43:48.259Z,99255.56
2023-01-08T16:46:20.971Z,99262.19
2023-01-08T16:48:51.357Z,99258.53
2023-01-08T16:51:21.351Z,99250.88
2023-01-08T16:53:51.005Z,99248.19
2023-01-08T16:56:19.920Z,99261.38
2023-01-08T16:58:52.356Z,99254.53
2023-01-08T17:01:22.196Z,99252.28
2023-01-08T17:03:52.285Z,99252.84
2023-01-08T17:06:21.084Z,99240.63
2023-01-08T17:08:54.043Z,99252.81
2023-01-08T17:11:24.108Z,99259.59
2023-01-08T17:13:53.849Z,99248.19
2023-01-08T17:16:23.385Z,99255.94
2023-01-08T17:18:52.068Z,99249.44
2023-01-08T17:21:20.957Z,99252.28
2023-01-08T17:23:50.528Z,99241.28
2023-01-08T17:26:19.235Z,99243.59
2023-01-08T17:28:51.666Z,99243.25
2023-01-08T17:31:22.508Z,99244.44
2023-01-08T17:33:52.360Z,99242.66
2023-01-08T17:36:26.019Z,99241.13
2023-01-08T17:38:56.439Z,99231.75
2023-01-08T17:41:45.712Z,99230.25
2023-01-08T17:44:15.740Z,99235.84
2023-01-08T17:46:45.730Z,99229.06
2023-01-08T17:49:16.913Z,99237.09
2023-01-08T17:51:48.947Z,99227.91
2023-01-08T17:54:19.248Z,99231.75
2023-01-08T17:56:50.087Z,99231.31
2023-01-08T17:59:20.953Z,99233.06
2023-01-08T18:01:53.080Z,99230.31
2023-01-08T18:04:22.551Z,99229.88
2023-01-08T18:06:52.420Z,99217.19
2023-01-08T18:09:21.994Z,99228.13
2023-01-08T18:11:51.551Z,99232.66
2023-01-08T18:14:21.227Z,99234.34
2023-01-08T18:16:50.847Z,99236.72
2023-01-08T18:19:24.939Z,99226.97
2023-01-08T18:21:55.040Z,99235.47
2023-01-08T18:24:24.564Z,99233.75
2023-01-08T18:26:54.176Z,99224.94
2023-01-08T18:29:23.735Z,99227.75
2023-01-08T18:31:54.404Z,99237.19
2023-01-08T18:34:26.207Z,99235.25
2023-01-08T18:36:57.396Z,99230.56
2023-01-08T18:39:28.900Z,99230.78
2023-01-08T18:42:16.066Z,99237.19
2023-01-08T18:44:45.514Z,99237.19
2023-01-08T18:47:15.676Z,99233.75
2023-01-08T18:49:44.337Z,99229.66
2023-01-08T18:52:14.297Z,99232.22
2023-01-08T18:54:43.068Z,99231.66
2023-01-08T18:57:14.125Z,99230.50
2023-01-08T18:59:43.837Z,99227.56
2023-01-08T19:02:22.937Z,99223.44
2023-01-08T19:04:51.754Z,99225.38
2023-01-08T19:07:21.419Z,99231.84
2023-01-08T19:09:50.925Z,99222.97
2023-01-08T19:12:20.537Z,99227.41
2023-01-08T19:14:50.033Z,99229.25
2023-01-08T19:17:21.971Z,99228.81
2023-01-08T19:19:51.460Z,99222.38
2023-01-08T19:22:22.600Z,99230.72
2023-01-08T19:24:51.264Z,99232.03
2023-01-08T19:27:20.212Z,99220.50
2023-01-08T19:29:50.317Z,99214.63
2023-01-08T19:32:19.084Z,99217.53
2023-01-08T19:34:48.017Z,99212.72
2023-01-08T19:37:18.525Z,99224.50
2023-01-08T19:39:49.531Z,99213.78
2023-01-08T19:42:37.487Z,99217.00
2023-01-08T19:45:07.020Z,99219.56
2023-01-08T19:47:36.509Z,99218.94
2023-01-08T19:50:06.629Z,99220.75
2023-01-08T19:52:36.884Z,99216.63
2023-01-08T19:55:06.008Z,99221.31
2023-01-08T19:57:35.567Z,99210.75
2023-01-08T20:00:06.597Z,99209.28
2023-01-08T20:02:35.180Z,99204.13
2023-01-08T20:05:05.168Z,99211.09
2023-01-08T20:07:34.636Z,99207.06
2023-01-08T20:10:05.169Z,99203.91
2023-01-08T20:12:34.651Z,99206.06
2023-01-08T20:15:03.686Z,99200.50
2023-01-08T20:17:32.745Z,99212.06
2023-01-08T20:20:02.287Z,99200.06
2023-01-08T20:22:31.275Z,99204.03
2023-01-08T20:25:00.788Z,99194.63
2023-01-08T20:27:30.384Z,99191.16
2023-01-08T20:29:59.244Z,99192.78
2023-01-08T20:32:29.101Z,99184.66
2023-01-08T20:34:57.711Z,99187.09
2023-01-08T20:37:26.476Z,99184.81
2023-01-08T20:39:55.522Z,99175.50
2023-01-08T20:42:33.523Z,99177.28
2023-01-08T20:45:03.063Z,99174.50
2023-01-08T20:47:35.680Z,99173.47
2023-01-08T20:50:12.312Z,99171.94
2023-01-08T20:52:48.181Z,99171.06
2023-01-08T20:55:18.772Z,99173.97
2023-01-08T20:57:47.532Z,99171.28
2023-01-08T21:00:17.171Z,99167.22
2023-01-08T21:02:46.489Z,99161.19
2023-01-08T21:05:15.995Z,99172.91
2023-01-08T21:07:46.293Z,99164.44
2023-01-08T21:10:14.897Z,99164.22
2023-01-08T21:12:44.413Z,99168.81
2023-01-08T21:15:13.305Z,99169.47
2023-01-08T21:17:42.799Z,99161.53
2023-01-08T21:20:12.355Z,99166.34
2023-01-08T21:22:40.996Z,99159.06
2023-01-08T21:25:11.723Z,99157.53
2023-01-08T21:27:40.313Z,99157.88
2023-01-08T21:30:10.427Z,99149.41
2023-01-08T21:32:39.892Z,99156.06
2023-01-08T21:35:08.966Z,99142.13
2023-01-08T21:37:38.605Z,99133.31
2023-01-08T21:40:08.326Z,99142.25
2023-01-08T21:42:57.617Z,99141.91
2023-01-08T21:45:28.147Z,99139.03
2023-01-08T21:47:58.803Z,99132.91
2023-01-08T21:50:28.344Z,99134.03
2023-01-08T21:53:16.406Z,99130.91
2023-01-08T21:55:46.600Z,99126.34
2023-01-08T21:58:15.385Z,99121.31
2023-01-08T22:00:46.740Z,99119.72
2023-01-08T22:03:15.473Z,99123.66
2023-01-08T22:05:44.167Z,99124.78
2023-01-08T22:08:18.550Z,99123.06
2023-01-08T22:10:47.984Z,99120.97
2023-01-08T22:13:16.546Z,99117.34
2023-01-08T22:15:45.207Z,99109.16
2023-01-08T22:18:13.935Z,99114.75
2023-01-08T22:20:46.819Z,99103.28
2023-01-08T22:23:15.473Z,99108.00
2023-01-08T22:25:44.875Z,99098.38
2023-01-08T22:28:14.697Z,99092.75
2023-01-08T22:30:44.175Z,99099.63
2023-01-08T22:33:12.785Z,99093.94
2023-01-08T22:35:41.394Z,99094.91
2023-01-08T22:38:10.042Z,99085.59
2023-01-08T22:40:39.854Z,99089.97
2023-01-08T22:43:08.540Z,99086.75
2023-01-08T22:45:37.176Z,99088.91
2023-01-08T22:48:07.929Z,99080.75
2023-01-08T22:50:36.520Z,99073.66
2023-01-08T22:53:05.199Z,99076.34
2023-01-08T22:55:33.800Z,99066.81
2023-01-08T22:58:02.394Z,99067.88
2023-01-08T23:00:31.072Z,99063.56
2023-01-08T23:02:59.721Z,99064.31
2023-01-08T23:05:28.264Z,99054.13
2023-01-08T23:07:56.831Z,99045.63
2023-01-08T23:10:25.875Z,99050.56
2023-01-08T23:12:55.056Z,99048.44
2023-01-08T23:15:24.302Z,99042.41
2023-01-08T23:17:53.045Z,99041.88
2023-01-08T23:20:24.169Z,99032.44
2023-01-08T23:22:52.865Z,99030.38
2023-01-08T23:25:21.546Z,99027.50
2023-01-08T23:27:51.434Z,99034.16
2023-01-08T23:30:21.056Z,99036.75
2023-01-08T23:32:49.664Z,99032.16
2023-01-08T23:35:18.320Z,99029.56
2023-01-08T23:37:47.738Z,99035.38
2023-01-08T23:40:17.152Z,99028.81
2023-01-08T23:42:46.592Z,99018.94
2023-01-08T23:45:15.218Z,99030.53
2023-01-08T23:47:43.845Z,99022.34
2023-01-08T23:50:12.620Z,99019.25
2023-01-08T23:52:41.337Z,99013.78
2023-01-08T23:55:10.786Z,99014.66
2023-01-08T23:57:39.374Z,99019.13
